Time;durP1;ratioP1;P1;durP2;ratioP2;P2;SDS_P1;SDS_P2;PMS_P1;PMS_P2;Temp;Humidity;BMP_temperature;BMP_pressure;BME280_temperature;BME280_humidity;BME280_pressure;Samples;Min_cycle;Max_cycle;Signal;HPM_P1;HPM_P2
2022/10/21 00:00:03;;;;;;;;;37.25;30.50;;;;;15.43;59.51;101770.75;146610;635;46020;-73
2022/10/21 00:02:56;;;;;;;;;34.00;30.00;;;;;15.35;59.16;101766.88;146609;601;46016;-74
2022/10/21 00:05:52;;;;;;;;;38.25;32.50;;;;;15.28;59.40;101759.56;146614;598;46021;-74
2022/10/21 00:08:50;;;;;;;;;37.25;32.25;;;;;14.52;59.18;101631.38;146610;614;46016;-74
2022/10/21 00:11:45;;;;;;;;;40.75;34.00;;;;;15.23;59.40;101771.50;146612;636;46020;-74
2022/10/21 00:14:39;;;;;;;;;29.75;28.25;;;;;15.19;59.83;101773.06;146610;573;46913;-74
2022/10/21 00:17:37;;;;;;;;;28.25;26.25;;;;;15.17;59.69;101777.34;146609;589;46020;-73
2022/10/21 00:20:35;;;;;;;;;27.00;26.00;;;;;15.17;59.44;101766.91;146609;604;47014;-74
2022/10/21 00:23:36;;;;;;;;;28.50;27.75;;;;;15.16;59.36;101757.25;146608;627;46911;-74
2022/10/21 00:26:42;;;;;;;;;28.25;24.75;;;;;13.16;58.51;101420.22;146610;617;46013;-74
2022/10/21 00:29:43;;;;;;;;;24.75;22.00;;;;;15.07;59.22;101763.72;146610;569;46020;-75
2022/10/21 00:32:41;;;;;;;;;23.00;23.00;;;;;15.00;59.48;101763.44;146611;563;46016;-74
2022/10/21 00:35:42;;;;;;;;;26.00;23.75;;;;;14.93;58.90;101769.19;146612;565;47010;-74
2022/10/21 00:38:39;;;;;;;;;21.25;21.00;;;;;14.88;59.41;101760.19;146608;610;46016;-73
2022/10/21 00:41:35;;;;;;;;;25.25;23.75;;;;;14.87;59.49;101762.75;146607;584;46020;-73
2022/10/21 00:44:34;;;;;;;;;23.75;22.50;;;;;14.85;59.08;101767.00;146604;604;46016;-73
2022/10/21 00:47:28;;;;;;;;;26.00;25.00;;;;;14.83;59.15;101766.00;146605;616;46012;-73
2022/10/21 00:50:53;;;;;;;;;25.25;24.50;;;;;13.70;58.18;101566.31;146601;582;46017;-73
2022/10/21 00:53:57;;;;;;;;;25.50;21.50;;;;;14.85;58.51;101767.00;146601;622;47010;-74
2022/10/21 00:56:53;;;;;;;;;25.50;25.25;;;;;14.83;59.27;101763.41;146602;570;46016;-73
2022/10/21 00:59:53;;;;;;;;;27.75;27.25;;;;;14.78;58.73;101764.06;146607;576;46010;-72
2022/10/21 01:02:51;;;;;;;;;33.50;28.00;;;;;14.74;58.79;101762.13;146601;590;46916;-74
2022/10/21 01:05:45;;;;;;;;;25.50;24.00;;;;;14.72;59.00;101766.38;146607;591;46020;-73
2022/10/21 01:08:45;;;;;;;;;25.00;23.75;;;;;14.72;59.49;101768.97;146605;648;46016;-75
2022/10/21 01:11:53;;;;;;;;;28.75;26.00;;;;;14.78;58.74;101764.06;146605;703;46020;-73
2022/10/21 01:15:21;;;;;;;;;30.25;26.25;;;;;14.82;58.62;101764.22;146601;569;46016;-73
2022/10/21 01:18:40;;;;;;;;;24.00;23.50;;;;;14.81;58.52;101771.16;146606;591;46010;-73
2022/10/21 01:22:15;;;;;;;;;27.00;23.75;;;;;12.81;57.97;101434.00;146602;641;46016;-73
2022/10/21 01:26:22;;;;;;;;;25.75;23.75;;;;;12.78;58.90;101441.62;146606;652;46010;-72
2022/10/21 01:30:26;;;;;;;;;29.25;27.75;;;;;12.92;59.18;101471.00;146604;583;46915;-74
2022/10/21 01:33:42;;;;;;;;;31.50;29.25;;;;;14.55;59.30;101770.75;146606;574;46010;-74
2022/10/21 01:37:04;;;;;;;;;29.25;27.25;;;;;14.48;60.36;101773.78;146601;592;47916;-73
2022/10/21 01:40:14;;;;;;;;;26.25;25.50;;;;;14.39;60.83;101782.84;146629;628;45020;-73
2022/10/21 01:43:31;;;;;;;;;27.00;25.50;;;;;14.33;60.43;101792.16;146626;615;45916;-73
2022/10/21 01:47:04;;;;;;;;;28.75;26.50;;;;;12.32;61.08;101443.44;146617;615;46020;-73
2022/10/21 01:50:11;;;;;;;;;29.50;28.25;;;;;14.18;61.67;101793.06;146622;575;46012;-71
2022/10/21 01:53:25;;;;;;;;;28.50;27.50;;;;;12.08;61.12;101436.03;146628;577;45010;-70
2022/10/21 01:56:33;;;;;;;;;34.25;30.00;;;;;12.34;61.18;101480.84;146625;583;45017;-72
2022/10/21 01:59:35;;;;;;;;;30.50;27.50;;;;;14.11;62.28;101799.63;146627;644;45020;-70
2022/10/21 02:02:38;;;;;;;;;31.25;27.00;;;;;14.07;63.31;101797.69;146625;650;46916;-72
2022/10/21 02:05:40;;;;;;;;;26.00;24.75;;;;;14.03;63.20;101794.03;146629;566;45010;-73
2022/10/21 02:08:40;;;;;;;;;31.75;28.50;;;;;14.02;63.21;101794.84;146624;610;46916;-70
2022/10/21 02:11:41;;;;;;;;;29.25;27.25;;;;;14.06;62.28;101793.31;146628;579;45912;-70
2022/10/21 02:14:56;;;;;;;;;35.75;30.25;;;;;14.13;62.61;101797.13;146625;572;46915;-70
2022/10/21 02:17:55;;;;;;;;;36.75;31.75;;;;;14.16;61.98;101792.97;146628;589;45011;-71
2022/10/21 02:20:54;;;;;;;;;34.25;30.75;;;;;14.19;61.13;101787.91;146623;600;45916;-70
2022/10/21 02:24:32;;;;;;;;;32.75;30.00;;;;;13.02;60.22;101616.50;146628;563;46010;-72
2022/10/21 02:27:31;;;;;;;;;30.50;28.50;;;;;14.09;61.98;101801.28;146626;604;45917;-72
2022/10/21 02:30:53;;;;;;;;;33.00;29.75;;;;;13.93;62.42;101806.50;146627;565;45020;-71
2022/10/21 02:34:37;;;;;;;;;32.25;29.25;;;;;13.81;61.91;101809.31;146625;578;45017;-72
2022/10/21 02:38:12;;;;;;;;;28.75;27.00;;;;;13.73;62.18;101813.19;146624;608;46010;-72
2022/10/21 02:41:26;;;;;;;;;36.50;31.50;;;;;13.72;62.72;101806.19;146610;609;46017;-73
2022/10/21 02:44:21;;;;;;;;;30.50;29.75;;;;;13.76;63.53;101808.16;146612;569;46020;-71
2022/10/21 02:47:29;;;;;;;;;;;;;;;;;;;;;
2022/10/21 02:50:59;;;;;;;;;;;;;;;;;;;;;
2022/10/21 02:53:54;;;;;;;;;35.75;30.75;;;;;13.53;64.17;101818.19;146608;594;47014;-72
2022/10/21 02:56:52;;;;;;;;;37.00;32.00;;;;;13.45;64.44;101818.56;146608;662;46021;-72
2022/10/21 03:00:08;;;;;;;;;29.75;28.25;;;;;13.40;64.35;101821.81;146610;579;46016;-71
2022/10/21 03:03:20;;;;;;;;;34.50;30.25;;;;;12.49;64.95;101676.75;146611;629;46021;-72
2022/10/21 03:06:19;;;;;;;;;31.00;27.50;;;;;13.40;65.48;101831.34;146608;651;46016;-72
2022/10/21 03:09:19;;;;;;;;;37.25;31.00;;;;;13.43;65.53;101838.41;146613;601;46021;-71
2022/10/21 03:12:17;;;;;;;;;32.75;30.75;;;;;13.48;65.34;101832.66;146612;569;46012;-71
2022/10/21 03:15:28;;;;;;;;;38.00;30.25;;;;;13.53;64.59;101827.72;146614;601;46020;-70
2022/10/21 03:18:26;;;;;;;;;34.25;30.50;;;;;13.62;64.36;101828.25;146608;583;46014;-73
2022/10/21 03:21:19;;;;;;;;;34.00;29.75;;;;;13.74;64.30;101833.25;146613;617;46020;-73
2022/10/21 03:24:11;;;;;;;;;34.75;31.75;;;;;13.85;64.39;101833.00;146611;593;46012;-73
2022/10/21 03:27:03;;;;;;;;;31.75;29.00;;;;;13.96;64.36;101832.75;146611;628;46021;-72
2022/10/21 03:29:55;;;;;;;;;34.25;31.75;;;;;14.03;63.85;101833.13;146604;628;46016;-72
2022/10/21 03:32:49;;;;;;;;;33.25;29.25;;;;;14.13;64.77;101841.47;146611;574;46021;-72
2022/10/21 03:35:53;;;;;;;;;35.75;32.00;;;;;14.18;64.80;101832.19;146606;733;46016;-73
2022/10/21 03:38:57;;;;;;;;;38.00;32.00;;;;;14.20;64.07;101827.94;146611;632;46010;-73
2022/10/21 03:41:54;;;;;;;;;37.75;33.00;;;;;14.32;64.30;101836.44;146603;622;46016;-74
2022/10/21 03:44:58;;;;;;;;;33.75;30.00;;;;;13.18;62.95;101613.91;146605;583;46020;-73
2022/10/21 03:47:54;;;;;;;;;34.75;31.50;;;;;14.51;64.41;101833.13;146603;636;46017;-73
2022/10/21 03:50:56;;;;;;;;;38.75;33.50;;;;;14.54;64.02;101839.38;146604;603;46012;-73
2022/10/21 03:53:51;;;;;;;;;35.50;31.50;;;;;14.60;63.58;101844.03;146604;622;46025;-73
2022/10/21 03:56:52;;;;;;;;;37.50;31.75;;;;;14.66;63.53;101838.25;146603;603;46021;-71
2022/10/21 03:59:46;;;;;;;;;35.50;31.00;;;;;14.72;63.68;101844.69;146603;580;46033;-70
2022/10/21 04:02:45;;;;;;;;;34.50;31.75;;;;;14.79;63.77;101846.78;146606;744;46021;-71
2022/10/21 04:05:46;;;;;;;;;39.25;32.75;;;;;14.83;63.95;101850.50;146600;659;47014;-71
2022/10/21 04:08:41;;;;;;;;;35.75;32.00;;;;;14.88;62.97;101855.94;146601;593;46021;-72
2022/10/21 04:11:37;;;;;;;;;38.50;32.50;;;;;14.94;62.96;101859.75;146603;595;47014;-71
2022/10/21 04:14:29;;;;;;;;;40.25;34.25;;;;;14.99;62.42;101854.78;146603;609;46012;-70
2022/10/21 04:17:43;;;;;;;;;34.75;32.00;;;;;15.07;61.38;101863.87;146603;627;46017;-70
2022/10/21 04:20:51;;;;;;;;;39.00;31.50;;;;;15.13;62.46;101866.81;146603;582;46012;-71
2022/10/21 04:23:57;;;;;;;;;36.75;32.50;;;;;15.17;62.83;101860.94;146604;657;46015;-70
2022/10/21 04:27:03;;;;;;;;;;;;;;;;;;;;;
2022/10/21 04:29:59;;;;;;;;;42.25;34.50;;;;;15.17;63.02;101871.41;146603;624;46012;-71
2022/10/21 04:32:55;;;;;;;;;44.00;35.75;;;;;15.16;62.83;101868.69;146606;718;46021;-72
2022/10/21 04:36:01;;;;;;;;;37.75;32.00;;;;;15.16;62.69;101872.19;146602;569;46014;-71
2022/10/21 04:38:53;;;;;;;;;37.75;32.00;;;;;15.16;62.48;101861.75;146608;576;46011;-71
2022/10/21 04:41:51;;;;;;;;;39.75;34.50;;;;;15.18;62.43;101862.72;146601;595;46016;-69
2022/10/21 04:44:54;;;;;;;;;38.25;31.75;;;;;15.23;61.90;101857.72;146606;649;46020;-72
2022/10/21 04:47:50;;;;;;;;;41.00;32.50;;;;;15.30;63.37;101866.78;146603;645;46012;-70
2022/10/21 04:51:00;;;;;;;;;42.75;34.50;;;;;15.31;62.16;101868.56;146607;591;46010;-70
2022/10/21 04:54:08;;;;;;;;;37.50;32.50;;;;;15.30;61.56;101872.03;146603;594;46017;-70
2022/10/21 04:57:00;;;;;;;;;43.75;31.75;;;;;15.30;62.28;101862.47;146605;624;46010;-70
2022/10/21 04:59:55;;;;;;;;;32.75;30.50;;;;;15.33;62.40;101869.56;146600;580;46016;-69
2022/10/21 05:03:08;;;;;;;;;43.00;34.75;;;;;15.35;62.61;101875.75;146607;594;46010;-72
2022/10/21 05:06:01;;;;;;;;;41.00;34.00;;;;;15.35;62.50;101880.97;146603;609;46012;-72
2022/10/21 05:09:00;;;;;;;;;37.75;32.00;;;;;15.34;62.74;101880.06;146608;573;46011;-72
2022/10/21 05:12:04;;;;;;;;;40.75;34.00;;;;;15.36;62.64;101888.00;146603;566;46012;-71
2022/10/21 05:15:02;;;;;;;;;42.75;35.00;;;;;15.34;62.16;101890.53;146605;570;46020;-70
2022/10/21 05:18:09;;;;;;;;;40.75;33.00;;;;;15.36;62.75;101893.22;146601;578;46012;-70
2022/10/21 05:21:06;;;;;;;;;39.00;33.00;;;;;15.40;62.65;101897.78;146606;580;46020;-70
2022/10/21 05:24:02;;;;;;;;;39.75;33.50;;;;;15.44;63.70;101905.84;146604;658;46012;-70
2022/10/21 05:27:06;;;;;;;;;42.00;34.00;;;;;15.47;63.32;101902.50;146604;590;46010;-70
2022/10/21 05:30:03;;;;;;;;;43.75;36.50;;;;;15.54;63.69;101903.69;146602;677;46016;-70
2022/10/21 05:32:55;;;;;;;;;40.50;34.00;;;;;15.62;63.46;101913.72;146606;589;46020;-70
2022/10/21 05:36:07;;;;;;;;;38.25;32.25;;;;;15.67;62.63;101921.84;146602;569;46016;-69
2022/10/21 05:39:12;;;;;;;;;42.25;35.00;;;;;15.70;63.90;101922.88;146606;609;46020;-69
2022/10/21 05:42:07;;;;;;;;;43.25;35.75;;;;;15.71;63.70;101929.00;146607;565;46016;-69
2022/10/21 05:44:59;;;;;;;;;42.75;34.75;;;;;15.74;63.57;101930.88;146610;573;46013;-69
2022/10/21 05:47:59;;;;;;;;;43.50;34.75;;;;;15.77;63.42;101934.53;146612;696;46014;-70
2022/10/21 05:51:09;;;;;;;;;41.00;35.00;;;;;15.80;62.72;101936.41;146611;583;46020;-69
2022/10/21 05:54:05;;;;;;;;;48.00;37.00;;;;;15.86;63.80;101939.34;146610;570;46017;-70
2022/10/21 05:57:02;;;;;;;;;42.50;34.75;;;;;15.90;63.39;101956.97;146613;567;46020;-72
2022/10/21 05:59:55;;;;;;;;;41.50;33.00;;;;;15.95;63.22;101947.63;146606;594;46016;-73
2022/10/21 06:03:01;;;;;;;;;44.00;36.00;;;;;14.10;62.33;101617.91;146610;604;46020;-72
2022/10/21 06:06:00;;;;;;;;;46.75;38.25;;;;;16.03;64.24;101955.84;146610;573;46033;-73
2022/10/21 06:09:04;;;;;;;;;47.00;35.75;;;;;16.04;64.48;101961.12;146612;689;46021;-72
2022/10/21 06:11:57;;;;;;;;;40.50;34.50;;;;;16.06;64.28;101964.72;146610;578;46012;-71
2022/10/21 06:14:54;;;;;;;;;39.75;32.50;;;;;16.08;63.81;101968.31;146613;564;46021;-72
2022/10/21 06:17:48;;;;;;;;;42.50;36.25;;;;;16.11;63.69;101970.19;146608;629;46016;-70
2022/10/21 06:20:43;;;;;;;;;33.25;30.25;;;;;16.13;63.29;101972.03;146611;663;46020;-72
2022/10/21 06:23:47;;;;;;;;;40.25;34.25;;;;;16.15;62.34;101974.75;146608;573;46017;-70
2022/10/21 06:26:39;;;;;;;;;44.75;37.50;;;;;16.16;62.44;101982.66;146613;591;46010;-70
2022/10/21 06:29:37;;;;;;;;;42.25;33.25;;;;;16.20;62.41;101978.50;146610;658;46031;-70
2022/10/21 06:32:39;;;;;;;;;38.75;33.75;;;;;16.21;61.91;101982.91;146611;716;46021;-70
2022/10/21 06:35:34;;;;;;;;;44.25;35.00;;;;;16.24;61.25;101990.91;146610;582;46016;-68
2022/10/21 06:38:33;;;;;;;;;46.25;36.50;;;;;16.26;61.80;101983.09;146610;566;46020;-70
2022/10/21 06:41:31;;;;;;;;;44.50;35.00;;;;;16.19;61.61;101976.69;146600;602;47016;-70
2022/10/21 06:44:28;;;;;;;;;42.25;33.50;;;;;15.39;61.56;101849.84;146605;570;46016;-72
2022/10/21 06:47:25;;;;;;;;;42.75;34.50;;;;;16.24;62.81;101997.84;146602;576;46034;-73
2022/10/21 06:50:33;;;;;;;;;44.25;35.25;;;;;16.26;62.82;101998.81;146599;569;47010;-74
2022/10/21 06:53:29;;;;;;;;;43.50;35.00;;;;;16.27;63.11;101993.66;146604;581;46016;-73
2022/10/21 06:56:42;;;;;;;;;;;;;;;;;;;;;
2022/10/21 06:59:48;;;;;;;;;47.50;36.50;;;;;16.28;62.51;101998.06;146600;578;46909;-74
2022/10/21 07:02:44;;;;;;;;;45.25;35.75;;;;;16.32;62.75;101993.88;146606;576;46020;-72
2022/10/21 07:05:50;;;;;;;;;42.00;36.00;;;;;16.36;62.63;101993.22;146601;576;46016;-72
2022/10/21 07:08:58;;;;;;;;;50.75;38.50;;;;;16.38;62.37;101994.16;146599;569;48020;-72
2022/10/21 07:11:53;;;;;;;;;44.50;37.00;;;;;16.35;62.37;101994.00;146605;624;46030;-72
2022/10/21 07:14:48;;;;;;;;;46.25;35.75;;;;;16.43;62.48;102003.13;146602;573;48010;-72
2022/10/21 07:17:44;;;;;;;;;44.25;35.00;;;;;16.46;62.12;102011.16;146602;621;46013;-72
2022/10/21 07:20:42;;;;;;;;;40.00;35.00;;;;;16.49;62.15;102013.91;146604;573;46020;-75
2022/10/21 07:23:41;;;;;;;;;48.00;39.25;;;;;16.47;62.69;102012.03;146602;581;46016;-76
2022/10/21 07:26:47;;;;;;;;;44.50;34.00;;;;;14.85;62.40;101747.00;146599;672;46021;-73
2022/10/21 07:29:46;;;;;;;;;38.25;31.75;;;;;16.42;62.55;102026.63;146604;652;46014;-75
2022/10/21 07:32:52;;;;;;;;;47.75;39.00;;;;;15.34;62.29;101826.91;146605;579;46010;-78
2022/10/21 07:36:24;;;;;;;;;40.50;34.25;;;;;14.61;61.35;101696.16;146603;593;46016;-74
2022/10/21 07:39:29;;;;;;;;;44.50;36.00;;;;;14.82;61.67;101719.84;146606;586;46020;-75
2022/10/21 07:42:35;;;;;;;;;43.50;35.75;;;;;16.63;62.70;102022.41;146603;569;46017;-75
2022/10/21 07:45:36;;;;;;;;;49.00;40.25;;;;;16.75;62.50;102024.72;146607;628;46010;-76
2022/10/21 07:48:33;;;;;;;;;59.50;46.50;;;;;16.77;63.00;102031.84;146604;589;46914;-77
2022/10/21 07:51:36;;;;;;;;;57.50;45.25;;;;;16.73;63.29;102040.37;146607;646;46010;-74
2022/10/21 07:54:43;;;;;;;;;;;;;;;;;;;;;
2022/10/21 07:57:59;;;;;;;;;52.00;41.75;;;;;14.92;60.99;101719.47;146604;612;46010;-77
2022/10/21 08:00:59;;;;;;;;;51.25;42.25;;;;;16.80;62.49;102033.72;146606;615;46012;-71
2022/10/21 08:03:59;;;;;;;;;48.00;39.75;;;;;16.89;62.06;102031.53;146607;574;46010;-70
2022/10/21 08:07:04;;;;;;;;;50.25;40.00;;;;;16.98;61.18;102039.81;146604;581;46016;-70
2022/10/21 08:10:02;;;;;;;;;48.75;38.50;;;;;17.04;62.06;102040.09;146607;579;46020;-70
2022/10/21 08:13:05;;;;;;;;;49.00;40.00;;;;;17.10;62.34;102036.84;146601;608;46016;-70
2022/10/21 08:16:03;;;;;;;;;45.50;37.00;;;;;17.15;62.19;102040.56;146606;633;46010;-71
2022/10/21 08:19:05;;;;;;;;;49.25;40.25;;;;;17.22;61.08;102047.00;146600;622;46017;-70
2022/10/21 08:22:02;;;;;;;;;49.50;41.00;;;;;17.29;62.19;102039.47;146604;611;46012;-70
2022/10/21 08:24:59;;;;;;;;;54.25;43.00;;;;;17.34;61.86;102034.44;146605;593;46013;-71
2022/10/21 08:28:05;;;;;;;;;51.75;43.00;;;;;17.39;59.88;102038.16;146604;581;46020;-71
2022/10/21 08:31:38;;;;;;;;;;;;;;;;;;;;;
2022/10/21 08:34:45;;;;;;;;;;;;;;;;;;;;;
2022/10/21 08:37:58;;;;;;;;;49.50;40.75;;;;;17.55;59.34;102042.34;146604;576;46016;-70
2022/10/21 08:41:13;;;;;;;;;52.50;41.00;;;;;15.86;59.07;101730.97;146628;578;45912;-72
2022/10/21 08:44:43;;;;;;;;;49.25;41.00;;;;;17.78;58.51;102046.00;146625;578;45016;-71
2022/10/21 08:47:57;;;;;;;;;53.75;43.00;;;;;16.20;58.15;101750.81;146623;569;45021;-71
2022/10/21 08:51:34;;;;;;;;;54.50;42.00;;;;;15.68;57.81;101646.47;146625;634;45016;-71
2022/10/21 08:54:48;;;;;;;;;53.75;42.50;;;;;18.06;57.70;102052.41;146626;586;45911;-70
2022/10/21 08:57:47;;;;;;;;;51.25;41.25;;;;;18.12;57.82;102048.31;146626;613;45033;-71
2022/10/21 09:00:51;;;;;;;;;50.25;39.50;;;;;18.22;57.99;102054.84;146627;742;46010;-70
2022/10/21 09:04:56;;;;;;;;;52.00;41.50;;;;;16.54;57.34;101734.87;146623;578;45017;-70
2022/10/21 09:08:19;;;;;;;;;47.50;39.50;;;;;16.67;57.52;101720.56;146628;598;45020;-71
2022/10/21 09:11:39;;;;;;;;;43.25;36.25;;;;;17.07;57.58;101788.66;146624;595;45032;-71
2022/10/21 09:14:59;;;;;;;;;49.50;40.25;;;;;18.57;57.47;102047.50;146629;647;45012;-71
2022/10/21 09:18:32;;;;;;;;;50.50;41.25;;;;;17.15;57.29;101788.97;146628;620;45013;-71
2022/10/21 09:21:58;;;;;;;;;49.50;40.75;;;;;18.59;57.61;102040.56;146625;771;45020;-71
2022/10/21 09:25:17;;;;;;;;;52.00;40.50;;;;;18.58;58.02;102039.69;146625;566;45036;-71
2022/10/21 09:28:31;;;;;;;;;47.25;38.50;;;;;18.56;58.11;102048.31;146623;594;45020;-71
2022/10/21 09:31:25;;;;;;;;;44.50;37.50;;;;;18.55;57.84;102044.81;146629;738;45012;-71
2022/10/21 09:35:09;;;;;;;;;48.50;37.00;;;;;16.95;57.27;101756.72;146626;613;45020;-71
2022/10/21 09:38:28;;;;;;;;;47.25;39.25;;;;;16.62;56.96;101695.91;146622;610;45017;-72
2022/10/21 09:41:39;;;;;;;;;49.50;38.50;;;;;18.56;56.69;102036.09;146603;574;46020;-71
2022/10/21 09:44:33;;;;;;;;;49.50;40.25;;;;;18.54;57.67;102031.62;146603;592;46914;-71
2022/10/21 09:47:32;;;;;;;;;45.75;37.00;;;;;18.55;57.79;102022.91;146606;677;46011;-71
2022/10/21 09:50:24;;;;;;;;;45.75;38.50;;;;;18.56;56.90;102025.56;146605;608;46016;-71
2022/10/21 09:53:28;;;;;;;;;47.00;37.25;;;;;18.50;57.86;102020.09;146606;599;46020;-74
2022/10/21 09:56:37;;;;;;;;;43.00;35.75;;;;;18.48;58.32;102016.53;146603;591;46012;-71
2022/10/21 09:59:30;;;;;;;;;43.25;36.00;;;;;18.49;58.65;102017.41;146605;563;46020;-71
2022/10/21 10:02:33;;;;;;;;;40.50;32.00;;;;;18.54;58.68;102014.13;146604;570;46013;-71
2022/10/21 10:05:57;;;;;;;;;39.25;33.25;;;;;17.04;58.16;101738.75;146602;610;46020;-71
2022/10/21 10:08:49;;;;;;;;;36.50;30.00;;;;;18.58;59.13;102005.53;146602;570;46017;-72
2022/10/21 10:11:56;;;;;;;;;28.25;26.75;;;;;18.61;58.97;102007.38;146606;607;46020;-71
2022/10/21 10:15:10;;;;;;;;;22.75;21.50;;;;;18.66;59.15;102011.06;146604;583;46016;-71
2022/10/21 10:18:04;;;;;;;;;21.25;19.50;;;;;18.72;59.68;102013.03;146606;575;46010;-71
2022/10/21 10:21:32;;;;;;;;;23.00;21.50;;;;;17.02;57.96;101703.72;146601;626;46016;-70
2022/10/21 10:24:30;;;;;;;;;17.50;16.75;;;;;18.78;58.97;102002.78;146606;591;46021;-70
2022/10/21 10:27:26;;;;;;;;;21.00;18.00;;;;;18.82;58.84;102000.38;146601;571;46014;-70
2022/10/21 10:30:32;;;;;;;;;15.75;15.75;;;;;18.84;58.68;102005.66;146606;581;46011;-70
2022/10/21 10:33:38;;;;;;;;;21.50;20.00;;;;;18.83;58.38;102002.16;146602;573;46017;-71
2022/10/21 10:36:42;;;;;;;;;18.75;17.25;;;;;18.87;59.13;101996.16;146604;591;46010;-72
2022/10/21 10:39:43;;;;;;;;;21.50;18.25;;;;;18.85;59.52;101989.97;146609;591;46012;-71
2022/10/21 10:42:39;;;;;;;;;17.50;15.75;;;;;18.84;58.90;101990.78;146624;656;45020;-70
2022/10/21 10:45:43;;;;;;;;;18.00;17.00;;;;;18.86;59.43;101983.88;146626;570;45017;-71
2022/10/21 10:48:59;;;;;;;;;17.75;15.25;;;;;18.88;58.49;101976.06;146628;569;45020;-72
2022/10/21 10:52:24;;;;;;;;;18.75;16.25;;;;;17.12;58.55;101657.81;146625;640;45911;-71
2022/10/21 10:55:30;;;;;;;;;20.00;16.00;;;;;18.97;58.69;101975.47;146625;596;45020;-71
2022/10/21 10:58:25;;;;;;;;;18.25;16.00;;;;;19.06;59.32;101971.44;146618;589;47012;-71
2022/10/21 11:01:47;;;;;;;;;;;;;;;;;;;;;
2022/10/21 11:05:17;;;;;;;;;15.50;15.00;;;;;17.55;57.57;101649.88;146625;577;45912;-70
2022/10/21 11:08:43;;;;;;;;;19.00;17.75;;;;;19.48;57.75;101962.41;146625;585;45031;-71
2022/10/21 11:12:03;;;;;;;;;16.25;14.50;;;;;18.17;56.96;101691.50;146623;571;45016;-72
2022/10/21 11:15:01;;;;;;;;;18.25;18.25;;;;;19.94;57.56;101945.56;146627;583;46011;-71
2022/10/21 11:18:37;;;;;;;;;19.00;16.50;;;;;20.07;56.54;101950.38;146621;563;45016;-71
2022/10/21 11:22:11;;;;;;;;;22.75;19.00;;;;;20.13;56.16;101944.41;146630;617;45010;-71
2022/10/21 11:25:38;;;;;;;;;22.50;19.25;;;;;20.16;55.91;101936.62;146626;584;45914;-71
2022/10/21 11:28:54;;;;;;;;;16.00;16.00;;;;;20.17;56.30;101936.66;146626;626;45020;-71
2022/10/21 11:32:34;;;;;;;;;18.25;17.00;;;;;18.34;55.94;101623.81;146621;577;45017;-70
2022/10/21 11:35:57;;;;;;;;;18.00;17.00;;;;;20.08;56.14;101933.72;146628;566;45020;-71
2022/10/21 11:39:29;;;;;;;;;17.75;14.75;;;;;20.02;56.14;101925.63;146627;590;45013;-71
2022/10/21 11:42:32;;;;;;;;;18.50;17.00;;;;;20.03;56.48;101935.31;146624;569;45020;-71
2022/10/21 11:46:10;;;;;;;;;19.25;17.00;;;;;20.02;56.16;101929.16;146624;635;46010;-71
2022/10/21 11:49:33;;;;;;;;;21.00;18.75;;;;;20.02;56.18;101917.72;146627;614;45020;-72
2022/10/21 11:53:26;;;;;;;;;15.75;13.00;;;;;18.39;56.25;101617.91;146624;664;45017;-71
2022/10/21 11:56:47;;;;;;;;;14.50;14.00;;;;;20.28;55.33;101924.72;146626;629;45033;-71
2022/10/21 12:00:27;;;;;;;;;14.75;13.75;;;;;18.69;55.05;101639.03;146624;571;45017;-72
2022/10/21 12:03:58;;;;;;;;;17.00;14.00;;;;;20.53;54.48;101914.94;146624;612;45020;-71
2022/10/21 12:07:48;;;;;;;;;11.50;10.75;;;;;18.98;53.76;101611.94;146626;593;45017;-71
2022/10/21 12:11:32;;;;;;;;;14.75;14.50;;;;;19.12;53.97;101587.84;146627;563;45020;-71
2022/10/21 12:15:08;;;;;;;;;;;;;;;;;;;;;
2022/10/21 12:18:37;;;;;;;;;11.25;10.00;;;;;19.48;52.59;101607.31;146623;604;45020;-71
2022/10/21 12:21:39;;;;;;;;;18.00;17.00;;;;;21.25;53.17;101906.41;146624;601;45914;-70
2022/10/21 12:25:01;;;;;;;;;14.50;13.00;;;;;21.42;52.42;101898.94;146626;643;45020;-70
2022/10/21 12:28:40;;;;;;;;;12.25;11.00;;;;;19.85;51.80;101604.00;146624;582;46014;-71
2022/10/21 12:32:02;;;;;;;;;15.00;15.00;;;;;21.52;51.54;101890.41;146624;649;46010;-73
2022/10/21 12:34:58;;;;;;;;;13.75;12.00;;;;;21.52;50.62;101890.41;146627;666;45012;-72
2022/10/21 12:38:42;;;;;;;;;12.75;12.50;;;;;19.81;52.08;101588.94;146629;635;45010;-71
2022/10/21 12:41:43;;;;;;;;;12.00;12.00;;;;;21.59;51.30;101881.81;146611;642;46012;-70
2022/10/21 12:44:42;;;;;;;;;9.00;8.75;;;;;21.79;50.36;101879.62;146607;564;46021;-71
2022/10/21 12:47:48;;;;;;;;;14.75;12.25;;;;;21.98;51.10;101880.94;146606;602;46012;-71
2022/10/21 12:50:46;;;;;;;;;13.50;13.25;;;;;22.08;49.48;101875.00;146605;572;46010;-71
2022/10/21 12:54:15;;;;;;;;;16.00;15.00;;;;;20.42;50.72;101581.78;146601;600;46035;-71
2022/10/21 12:57:19;;;;;;;;;14.00;12.00;;;;;22.20;50.34;101873.53;146604;675;46020;-71
2022/10/21 13:01:01;;;;;;;;;13.50;12.00;;;;;20.65;50.52;101582.34;146603;673;46012;-71
2022/10/21 13:03:55;;;;;;;;;10.25;10.00;;;;;22.33;48.81;101865.88;146606;566;46010;-70
2022/10/21 13:07:29;;;;;;;;;10.50;8.00;;;;;22.39;49.13;101861.59;146603;622;46016;-72
2022/10/21 13:10:30;;;;;;;;;12.25;11.00;;;;;22.47;49.37;101866.19;146602;577;47012;-71
2022/10/21 13:13:51;;;;;;;;;13.00;11.75;;;;;21.58;49.67;101699.62;146603;685;46012;-71
2022/10/21 13:16:53;;;;;;;;;11.50;8.00;;;;;22.57;48.46;101844.38;146605;601;46020;-71
2022/10/21 13:19:52;;;;;;;;;12.33;10.33;;;;;22.64;48.16;101845.38;146604;603;46016;-71
2022/10/21 13:23:18;;;;;;;;;10.50;9.25;;;;;22.62;48.27;101838.25;146599;635;47012;-72
2022/10/21 13:26:29;;;;;;;;;8.00;7.50;;;;;20.90;48.95;101549.53;146605;594;46012;-72
2022/10/21 13:29:51;;;;;;;;;9.33;9.33;;;;;20.84;50.31;101555.59;146606;583;46020;-73
2022/10/21 13:33:08;;;;;;;;;7.00;7.00;;;;;22.44;47.55;101837.06;146604;604;46012;-70
2022/10/21 13:36:42;;;;;;;;;9.00;8.00;;;;;21.53;48.61;101706.59;146604;693;46020;-72
2022/10/21 13:39:38;;;;;;;;;7.00;6.00;;;;;22.21;47.50;101852.44;146605;602;46016;-72
2022/10/21 13:42:46;;;;;;;;;8.67;8.67;;;;;22.13;48.08;101859.28;146632;626;45010;-70
2022/10/21 13:46:09;;;;;;;;;7.75;6.00;;;;;22.01;49.50;101859.00;146628;689;45915;-71
2022/10/21 13:49:05;;;;;;;;;8.33;7.00;;;;;21.86;49.16;101857.78;146629;582;45020;-71
2022/10/21 13:52:04;;;;;;;;;9.50;7.75;;;;;21.73;48.75;101860.13;146623;579;45910;-69
2022/10/21 13:55:04;;;;;;;;;7.00;7.00;;;;;21.61;48.43;101858.94;146630;638;45010;-71
2022/10/21 13:58:02;;;;;;;;;8.33;7.33;;;;;21.50;47.88;101857.81;146628;581;45914;-71
2022/10/21 14:00:57;;;;;;;;;7.33;5.67;;;;;21.39;49.90;101854.00;146629;566;46010;-71
2022/10/21 14:03:54;;;;;;;;;7.33;7.33;;;;;21.25;47.85;101847.47;146626;579;46012;-70
2022/10/21 14:06:56;;;;;;;;;9.67;7.00;;;;;21.05;49.15;101858.38;146628;586;45035;-71
2022/10/21 14:10:06;;;;;;;;;8.67;7.33;;;;;20.94;51.70;101851.97;146627;571;46914;-72
2022/10/21 14:13:04;;;;;;;;;7.50;6.50;;;;;20.87;51.05;101860.53;146626;602;46020;-72
2022/10/21 14:15:57;;;;;;;;;8.00;8.00;;;;;20.80;50.85;101853.31;146623;572;46012;-70
2022/10/21 14:18:57;;;;;;;;;8.33;8.33;;;;;20.75;52.06;101862.00;146630;582;45010;-72
2022/10/21 14:21:56;;;;;;;;;5.67;3.00;;;;;20.69;51.19;101869.72;146626;592;46017;-71
2022/10/21 14:25:21;;;;;;;;;8.67;7.33;;;;;20.55;51.73;101868.44;146627;639;45010;-72
2022/10/21 14:28:26;;;;;;;;;8.00;7.00;;;;;20.43;52.20;101854.88;146626;565;46017;-70